Time;durP1;ratioP1;P1;durP2;ratioP2;P2;SDS_P1;SDS_P2;PMS_P1;PMS_P2;Temp;Humidity;BMP_temperature;BMP_pressure;BME280_temperature;BME280_humidity;BME280_pressure;Samples;Min_cycle;Max_cycle;Signal;HPM_P1;HPM_P2
2023/04/18 00:00:37;;;;;;;23.15;11.65;;;;;;;;;;5064452;28;20057;-77
2023/04/18 00:03:03;;;;;;;20.48;11.40;;;;;;;;;;5046526;28;20152;-76
2023/04/18 00:05:30;;;;;;;19.13;10.90;;;;;;;;;;5064288;28;20053;-77
2023/04/18 00:07:57;;;;;;;22.27;11.18;;;;;;;;;;5062061;28;20456;-77
2023/04/18 00:10:23;;;;;;;20.92;11.20;;;;;;;;;;5063881;28;20060;-76
2023/04/18 00:12:50;;;;;;;19.15;10.60;;;;;;;;;;5063793;28;20056;-77
2023/04/18 00:15:17;;;;;;;19.42;10.35;;;;;;;;;;5053802;28;20060;-76
2023/04/18 00:17:43;;;;;;;19.63;10.65;;;;;;;;;;5043855;28;20061;-76
2023/04/18 00:20:11;;;;;;;21.77;10.27;;;;;;;;;;5061178;28;20107;-77
2023/04/18 00:22:45;;;;;;;16.25;9.55;;;;;;;;;;5064271;28;20061;-77
2023/04/18 00:25:12;;;;;;;15.95;8.68;;;;;;;;;;5065321;28;20084;-77
2023/04/18 00:27:38;;;;;;;17.73;8.80;;;;;;;;;;5062190;28;20716;-76
2023/04/18 00:30:05;;;;;;;16.10;9.80;;;;;;;;;;5062637;28;20855;-76
2023/04/18 00:32:32;;;;;;;16.10;8.55;;;;;;;;;;5057801;28;20069;-76
2023/04/18 00:34:58;;;;;;;15.85;9.27;;;;;;;;;;5061463;28;20053;-77
2023/04/18 00:37:25;;;;;;;16.83;8.52;;;;;;;;;;5063982;28;20601;-77
2023/04/18 00:39:52;;;;;;;16.17;8.10;;;;;;;;;;5060458;28;20061;-77
2023/04/18 00:42:20;;;;;;;15.32;8.45;;;;;;;;;;5062215;28;20049;-77
2023/04/18 00:44:47;;;;;;;15.98;8.40;;;;;;;;;;5063707;28;20960;-76
2023/04/18 00:47:15;;;;;;;15.75;7.63;;;;;;;;;;5025665;28;1073980;-76
2023/04/18 00:49:42;;;;;;;13.93;7.90;;;;;;;;;;5062653;28;20064;-77
2023/04/18 00:52:09;;;;;;;13.65;7.15;;;;;;;;;;5057653;28;20168;-76
2023/04/18 00:54:36;;;;;;;18.10;7.95;;;;;;;;;;5063294;28;20063;-76
2023/04/18 00:57:02;;;;;;;18.92;8.10;;;;;;;;;;5058563;28;20096;-76
2023/04/18 00:59:29;;;;;;;13.43;7.75;;;;;;;;;;5054992;28;20526;-76
2023/04/18 01:01:55;;;;;;;12.90;7.40;;;;;;;;;;5060632;28;20056;-77
2023/04/18 01:04:22;;;;;;;16.85;7.63;;;;;;;;;;5063633;28;20056;-76
2023/04/18 01:06:48;;;;;;;17.08;7.65;;;;;;;;;;5064759;28;20091;-76
2023/04/18 01:09:15;;;;;;;14.30;7.80;;;;;;;;;;5058405;28;20207;-76
2023/04/18 01:11:41;;;;;;;14.93;6.88;;;;;;;;;;5062580;28;20068;-76
2023/04/18 01:14:07;;;;;;;10.93;6.38;;;;;;;;;;5063981;28;20053;-76
2023/04/18 01:16:35;;;;;;;13.07;7.35;;;;;;;;;;5063846;28;20116;-76
2023/04/18 01:19:02;;;;;;;12.82;7.22;;;;;;;;;;5056744;28;20059;-76
2023/04/18 01:21:30;;;;;;;13.30;7.30;;;;;;;;;;5055455;28;20068;-76
2023/04/18 01:23:58;;;;;;;13.18;6.88;;;;;;;;;;5062442;28;20056;-76
2023/04/18 01:26:25;;;;;;;15.23;7.85;;;;;;;;;;5061379;28;20096;-76
2023/04/18 01:28:52;;;;;;;14.50;7.25;;;;;;;;;;5063184;28;20575;-76
2023/04/18 01:31:18;;;;;;;13.40;6.90;;;;;;;;;;5062115;28;20543;-76
2023/04/18 01:33:47;;;;;;;11.85;7.10;;;;;;;;;;5057955;28;20052;-76
2023/04/18 01:36:14;;;;;;;13.85;6.90;;;;;;;;;;5063021;28;20063;-76
2023/04/18 01:38:40;;;;;;;12.38;6.88;;;;;;;;;;5062999;28;20111;-76
2023/04/18 01:41:06;;;;;;;14.00;6.53;;;;;;;;;;5063907;28;20523;-76
2023/04/18 01:43:33;;;;;;;13.20;6.95;;;;;;;;;;5060607;28;20511;-76
2023/04/18 01:45:59;;;;;;;12.18;7.10;;;;;;;;;;5061757;28;20055;-76
2023/04/18 01:48:26;;;;;;;10.27;6.90;;;;;;;;;;5062397;28;20057;-76
2023/04/18 01:50:52;;;;;;;14.07;7.22;;;;;;;;;;5058138;28;20048;-76
2023/04/18 01:53:18;;;;;;;12.43;6.78;;;;;;;;;;5062841;28;20148;-76
2023/04/18 01:55:47;;;;;;;15.57;7.50;;;;;;;;;;5059202;28;20049;-76
2023/04/18 01:58:15;;;;;;;13.63;6.85;;;;;;;;;;5052572;28;20664;-77
2023/04/18 02:00:41;;;;;;;12.30;6.70;;;;;;;;;;5052847;28;20049;-76
2023/04/18 02:03:08;;;;;;;15.20;7.18;;;;;;;;;;5072683;28;20057;-76
2023/04/18 02:05:35;;;;;;;14.98;7.07;;;;;;;;;;5063373;28;20045;-76
2023/04/18 02:08:01;;;;;;;13.82;7.82;;;;;;;;;;5063865;28;20139;-76
2023/04/18 02:10:28;;;;;;;13.80;6.63;;;;;;;;;;5064031;28;20095;-76
2023/04/18 02:12:54;;;;;;;15.85;7.35;;;;;;;;;;5062530;28;20524;-76
2023/04/18 02:15:22;;;;;;;12.93;6.88;;;;;;;;;;5062523;28;20060;-76
2023/04/18 02:17:49;;;;;;;12.38;7.00;;;;;;;;;;5062343;28;20511;-76
2023/04/18 02:20:15;;;;;;;11.85;6.90;;;;;;;;;;5062581;28;20049;-76
2023/04/18 02:22:42;;;;;;;13.40;7.18;;;;;;;;;;5063002;28;20060;-77
2023/04/18 02:25:09;;;;;;;15.77;7.10;;;;;;;;;;5063860;28;20057;-77
2023/04/18 02:27:36;;;;;;;13.82;7.10;;;;;;;;;;5063243;28;20049;-76
2023/04/18 02:30:02;;;;;;;13.38;7.20;;;;;;;;;;5063703;28;20064;-76
2023/04/18 02:32:28;;;;;;;12.88;7.00;;;;;;;;;;5063486;28;20056;-76
2023/04/18 02:34:55;;;;;;;14.75;6.68;;;;;;;;;;5062827;28;20049;-76
2023/04/18 02:37:21;;;;;;;15.30;7.47;;;;;;;;;;5054907;28;20124;-76
2023/04/18 02:39:48;;;;;;;12.18;6.35;;;;;;;;;;5050691;28;20049;-76
2023/04/18 02:42:14;;;;;;;13.52;7.00;;;;;;;;;;5064209;28;20057;-76
2023/04/18 02:44:41;;;;;;;13.25;7.03;;;;;;;;;;5062079;28;20083;-77
2023/04/18 02:47:07;;;;;;;16.05;7.20;;;;;;;;;;5060241;28;20809;-76
2023/04/18 02:49:33;;;;;;;16.05;7.80;;;;;;;;;;5061359;28;20057;-76
2023/04/18 02:52:00;;;;;;;13.77;6.75;;;;;;;;;;5062681;28;20064;-76
2023/04/18 02:54:27;;;;;;;12.95;6.82;;;;;;;;;;5063096;28;20825;-76
2023/04/18 02:56:53;;;;;;;13.00;7.10;;;;;;;;;;5058310;28;20053;-76
2023/04/18 02:59:20;;;;;;;13.93;6.60;;;;;;;;;;5049930;28;20049;-76
2023/04/18 03:01:46;;;;;;;12.48;7.20;;;;;;;;;;5062838;28;20049;-76
2023/04/18 03:04:12;;;;;;;12.40;6.80;;;;;;;;;;5062515;28;20057;-76
2023/04/18 03:06:40;;;;;;;14.70;7.25;;;;;;;;;;5063467;28;20825;-77
2023/04/18 03:09:06;;;;;;;15.43;7.55;;;;;;;;;;5054914;28;20057;-76
2023/04/18 03:11:33;;;;;;;14.88;7.13;;;;;;;;;;5059456;28;20052;-76
2023/04/18 03:13:59;;;;;;;11.80;6.70;;;;;;;;;;5063026;28;20059;-75
2023/04/18 03:16:26;;;;;;;14.55;7.50;;;;;;;;;;5062260;28;20088;-77
2023/04/18 03:18:53;;;;;;;15.88;7.57;;;;;;;;;;5058795;28;20313;-76
2023/04/18 03:21:19;;;;;;;12.63;7.28;;;;;;;;;;5059959;28;20084;-76
2023/04/18 03:23:45;;;;;;;14.85;7.28;;;;;;;;;;5056188;28;20068;-76
2023/04/18 03:26:12;;;;;;;12.85;7.28;;;;;;;;;;5052872;28;21011;-77
2023/04/18 03:28:39;;;;;;;18.33;7.38;;;;;;;;;;5062751;28;20088;-76
2023/04/18 03:31:05;;;;;;;12.70;6.55;;;;;;;;;;5060502;28;20049;-76
2023/04/18 03:33:32;;;;;;;13.25;7.25;;;;;;;;;;5042711;28;20140;-76
2023/04/18 03:35:58;;;;;;;15.98;7.75;;;;;;;;;;5055774;28;20524;-76
2023/04/18 03:38:25;;;;;;;16.52;7.20;;;;;;;;;;5062938;28;20071;-76
2023/04/18 03:40:51;;;;;;;12.80;7.75;;;;;;;;;;5062774;28;21043;-76
2023/04/18 03:43:18;;;;;;;12.60;6.97;;;;;;;;;;5060893;28;20053;-76
2023/04/18 03:45:46;;;;;;;13.38;7.40;;;;;;;;;;5059722;28;20764;-76
2023/04/18 03:48:13;;;;;;;15.55;7.97;;;;;;;;;;5061818;28;20543;-76
2023/04/18 03:50:40;;;;;;;14.65;7.72;;;;;;;;;;5061945;28;20060;-76
2023/04/18 03:53:06;;;;;;;13.85;7.35;;;;;;;;;;5061483;28;20051;-76
2023/04/18 03:55:32;;;;;;;13.52;7.30;;;;;;;;;;5060416;28;20535;-76
2023/04/18 03:57:59;;;;;;;14.93;7.78;;;;;;;;;;5063227;28;20900;-76
2023/04/18 04:00:26;;;;;;;15.07;7.97;;;;;;;;;;5053243;28;20595;-76
2023/04/18 04:02:52;;;;;;;15.23;7.78;;;;;;;;;;5055595;28;20111;-76
2023/04/18 04:05:19;;;;;;;15.18;7.85;;;;;;;;;;5058790;28;20057;-76
2023/04/18 04:07:45;;;;;;;16.75;8.43;;;;;;;;;;5042711;28;20064;-76
2023/04/18 04:10:12;;;;;;;15.43;8.20;;;;;;;;;;5051652;28;20130;-76
2023/04/18 04:12:38;;;;;;;13.25;7.32;;;;;;;;;;5068244;28;20096;-76
2023/04/18 04:15:05;;;;;;;19.13;8.63;;;;;;;;;;5066461;28;20057;-76
2023/04/18 04:17:31;;;;;;;15.07;8.27;;;;;;;;;;5059227;28;20057;-76
2023/04/18 04:19:57;;;;;;;16.35;7.95;;;;;;;;;;5065014;28;20498;-76
2023/04/18 04:22:24;;;;;;;18.17;8.50;;;;;;;;;;5066002;28;20064;-77
2023/04/18 04:24:50;;;;;;;13.40;8.25;;;;;;;;;;5048117;28;20558;-76
2023/04/18 04:27:17;;;;;;;15.52;7.80;;;;;;;;;;5066102;28;20503;-76
2023/04/18 04:29:44;;;;;;;17.90;8.35;;;;;;;;;;5064387;28;20060;-76
2023/04/18 04:32:11;;;;;;;15.60;8.13;;;;;;;;;;5062536;28;20053;-76
2023/04/18 04:34:40;;;;;;;15.60;8.43;;;;;;;;;;5056952;28;20057;-77
2023/04/18 04:37:07;;;;;;;17.08;8.75;;;;;;;;;;5056622;28;20084;-77
2023/04/18 04:39:33;;;;;;;15.63;8.95;;;;;;;;;;5066275;28;20154;-77
2023/04/18 04:42:03;;;;;;;15.23;8.50;;;;;;;;;;5063847;28;20507;-76
2023/04/18 04:44:30;;;;;;;15.98;8.68;;;;;;;;;;5052991;28;20062;-77
2023/04/18 04:46:56;;;;;;;16.10;8.05;;;;;;;;;;5054277;28;20061;-75
2023/04/18 04:49:23;;;;;;;14.60;8.13;;;;;;;;;;5064552;28;20060;-77
2023/04/18 04:51:49;;;;;;;15.50;8.30;;;;;;;;;;5062772;28;20057;-76
2023/04/18 04:54:15;;;;;;;14.75;8.05;;;;;;;;;;5063647;28;20067;-77
2023/04/18 04:56:42;;;;;;;15.88;8.52;;;;;;;;;;5054116;28;21016;-77
2023/04/18 04:59:08;;;;;;;14.20;8.23;;;;;;;;;;5059162;28;20641;-76
2023/04/18 05:01:35;;;;;;;16.88;8.70;;;;;;;;;;5059198;28;20057;-77
2023/04/18 05:04:01;;;;;;;17.50;8.32;;;;;;;;;;5060618;28;20068;-77
2023/04/18 05:06:28;;;;;;;16.27;8.98;;;;;;;;;;5063377;28;20049;-76
2023/04/18 05:08:56;;;;;;;18.92;9.45;;;;;;;;;;5050294;28;20057;-76
2023/04/18 05:11:22;;;;;;;19.35;8.65;;;;;;;;;;5064916;28;20059;-77
2023/04/18 05:13:49;;;;;;;17.20;8.93;;;;;;;;;;5069863;28;20068;-78
2023/04/18 05:16:15;;;;;;;16.63;8.82;;;;;;;;;;5053077;28;20052;-74
2023/04/18 05:18:42;;;;;;;19.80;9.32;;;;;;;;;;5050109;28;22374;-75
2023/04/18 05:21:12;;;;;;;17.50;9.15;;;;;;;;;;5056155;28;20063;-76
2023/04/18 05:23:39;;;;;;;15.70;9.23;;;;;;;;;;5063301;28;20053;-78
2023/04/18 05:26:05;;;;;;;19.10;8.88;;;;;;;;;;5072305;28;20057;-77
2023/04/18 05:28:31;;;;;;;17.33;9.30;;;;;;;;;;5071376;28;20090;-78
2023/04/18 05:31:01;;;;;;;18.58;8.73;;;;;;;;;;5066135;28;20055;-76
2023/04/18 05:33:28;;;;;;;16.25;8.63;;;;;;;;;;5059903;28;20118;-78
2023/04/18 05:35:55;;;;;;;16.48;8.73;;;;;;;;;;5073744;28;20076;-77
2023/04/18 05:38:21;;;;;;;18.92;9.23;;;;;;;;;;5062692;28;20061;-76
2023/04/18 05:40:49;;;;;;;16.98;9.05;;;;;;;;;;5064086;28;20041;-78
2023/04/18 05:43:18;;;;;;;19.73;9.07;;;;;;;;;;5064541;28;20095;-77
2023/04/18 05:45:45;;;;;;;18.30;8.88;;;;;;;;;;5053050;28;20148;-75
2023/04/18 05:48:12;;;;;;;16.88;9.10;;;;;;;;;;5054224;28;20084;-76
2023/04/18 05:50:38;;;;;;;17.65;8.90;;;;;;;;;;5061695;28;20478;-78
2023/04/18 05:53:05;;;;;;;17.70;8.93;;;;;;;;;;5067867;28;20049;-78
2023/04/18 05:55:33;;;;;;;17.63;9.30;;;;;;;;;;5066550;28;20168;-77
2023/04/18 05:57:59;;;;;;;17.23;9.45;;;;;;;;;;5067320;28;20037;-77
2023/04/18 06:00:26;;;;;;;21.13;9.38;;;;;;;;;;5057002;28;20057;-76
2023/04/18 06:02:53;;;;;;;16.95;9.20;;;;;;;;;;5055836;28;20511;-75
2023/04/18 06:05:19;;;;;;;14.55;8.68;;;;;;;;;;5051686;28;20057;-76
2023/04/18 06:07:47;;;;;;;17.52;8.95;;;;;;;;;;5048354;28;20089;-76
2023/04/18 06:10:14;;;;;;;22.98;9.68;;;;;;;;;;5062761;28;20122;-77
2023/04/18 06:12:41;;;;;;;16.27;8.98;;;;;;;;;;5064125;28;20053;-77
2023/04/18 06:15:08;;;;;;;17.52;8.65;;;;;;;;;;5063876;28;20053;-76
2023/04/18 06:17:34;;;;;;;18.55;9.32;;;;;;;;;;5060830;28;20049;-76
2023/04/18 06:20:02;;;;;;;17.70;8.60;;;;;;;;;;5054326;28;20060;-76
2023/04/18 06:22:29;;;;;;;16.50;8.80;;;;;;;;;;5052695;28;20057;-76
2023/04/18 06:24:55;;;;;;;16.35;8.55;;;;;;;;;;5056230;28;20128;-76
2023/04/18 06:27:21;;;;;;;18.90;8.15;;;;;;;;;;5063546;28;20132;-76
2023/04/18 06:29:57;;;;;;;16.50;8.30;;;;;;;;;;5055417;28;20060;-76
2023/04/18 06:32:23;;;;;;;14.75;8.15;;;;;;;;;;5065658;28;20080;-77
2023/04/18 06:34:51;;;;;;;14.60;7.78;;;;;;;;;;5060956;28;20064;-77
2023/04/18 06:37:18;;;;;;;13.75;8.30;;;;;;;;;;5060467;28;20156;-78
2023/04/18 06:39:44;;;;;;;14.65;8.63;;;;;;;;;;5064424;28;20049;-77
2023/04/18 06:42:11;;;;;;;14.57;8.05;;;;;;;;;;5066281;28;20053;-77
2023/04/18 06:44:37;;;;;;;15.07;8.07;;;;;;;;;;5065338;28;20056;-78
2023/04/18 06:47:03;;;;;;;14.80;8.20;;;;;;;;;;5062331;28;20052;-76
2023/04/18 06:49:30;;;;;;;16.95;8.20;;;;;;;;;;5051365;28;20124;-75
2023/04/18 06:51:56;;;;;;;17.77;8.57;;;;;;;;;;5052394;28;20053;-77
2023/04/18 06:54:23;;;;;;;15.70;8.07;;;;;;;;;;5065448;28;20172;-78
2023/04/18 06:56:49;;;;;;;16.05;8.10;;;;;;;;;;5066125;28;20115;-78
2023/04/18 06:59:16;;;;;;;14.88;7.72;;;;;;;;;;5061894;28;20057;-78
2023/04/18 07:01:42;;;;;;;15.25;8.23;;;;;;;;;;5069393;28;20060;-78
2023/04/18 07:04:08;;;;;;;15.35;8.05;;;;;;;;;;5063745;28;20088;-78
2023/04/18 07:06:35;;;;;;;14.38;7.68;;;;;;;;;;5064078;28;20114;-76
2023/04/18 07:09:01;;;;;;;15.90;8.25;;;;;;;;;;5056386;28;20424;-77
2023/04/18 07:11:28;;;;;;;17.30;7.82;;;;;;;;;;5065170;28;20049;-77
2023/04/18 07:13:54;;;;;;;13.55;7.55;;;;;;;;;;5058518;28;20570;-77
2023/04/18 07:16:21;;;;;;;16.80;8.13;;;;;;;;;;5053577;28;20089;-77
2023/04/18 07:18:47;;;;;;;15.80;8.23;;;;;;;;;;5052116;28;20069;-76
2023/04/18 07:21:14;;;;;;;15.35;8.07;;;;;;;;;;5060343;28;20061;-76
2023/04/18 07:23:40;;;;;;;12.48;7.35;;;;;;;;;;5054515;28;20056;-76
2023/04/18 07:26:08;;;;;;;15.10;8.00;;;;;;;;;;5055307;28;20131;-77
2023/04/18 07:28:34;;;;;;;14.23;7.78;;;;;;;;;;5062822;28;20100;-75
2023/04/18 07:31:02;;;;;;;14.43;7.82;;;;;;;;;;5058078;28;20163;-76
2023/04/18 07:33:32;;;;;;;13.88;7.50;;;;;;;;;;5060284;28;20155;-76
2023/04/18 07:35:59;;;;;;;13.90;7.05;;;;;;;;;;5051750;28;20059;-74
2023/04/18 07:38:26;;;;;;;13.63;7.72;;;;;;;;;;5055209;28;20063;-76
2023/04/18 07:40:59;;;;;;;15.20;7.75;;;;;;;;;;5056819;28;20057;-75
2023/04/18 07:43:25;;;;;;;13.73;6.93;;;;;;;;;;5061608;28;20080;-76
2023/04/18 07:45:52;;;;;;;14.15;7.05;;;;;;;;;;5067944;28;20518;-76
2023/04/18 07:48:21;;;;;;;14.32;7.13;;;;;;;;;;5051337;28;20216;-76
2023/04/18 07:50:48;;;;;;;14.20;6.90;;;;;;;;;;5055426;28;20054;-75
2023/04/18 07:53:14;;;;;;;15.52;7.03;;;;;;;;;;5051514;28;20119;-76
2023/04/18 07:55:42;;;;;;;12.82;6.40;;;;;;;;;;5066972;28;20132;-77
2023/04/18 07:58:08;;;;;;;13.70;6.65;;;;;;;;;;5059580;28;20045;-76
2023/04/18 08:00:35;;;;;;;10.70;6.55;;;;;;;;;;5058114;28;20057;-76
2023/04/18 08:03:02;;;;;;;12.95;6.63;;;;;;;;;;5053907;28;20132;-75
2023/04/18 08:05:29;;;;;;;11.45;6.75;;;;;;;;;;5054913;28;20064;-76
2023/04/18 08:07:55;;;;;;;10.02;6.00;;;;;;;;;;5056469;28;20056;-76
2023/04/18 08:10:21;;;;;;;12.80;6.88;;;;;;;;;;5047414;28;20802;-76
2023/04/18 08:12:49;;;;;;;10.85;6.13;;;;;;;;;;5060342;28;20148;-76
2023/04/18 08:15:15;;;;;;;11.18;6.25;;;;;;;;;;5062123;28;20045;-76
2023/04/18 08:17:43;;;;;;;12.48;5.70;;;;;;;;;;5064327;28;20051;-76
2023/04/18 08:20:11;;;;;;;11.75;6.47;;;;;;;;;;5059964;28;20057;-76
2023/04/18 08:22:38;;;;;;;10.48;6.00;;;;;;;;;;5046444;28;20078;-76
2023/04/18 08:25:24;;;;;;;14.52;6.38;;;;;;;;;;5049027;28;20556;-77
2023/04/18 08:27:50;;;;;;;9.90;5.55;;;;;;;;;;5056308;28;20053;-76
2023/04/18 08:30:17;;;;;;;11.07;6.18;;;;;;;;;;5064762;28;20057;-77
2023/04/18 08:32:43;;;;;;;12.18;6.03;;;;;;;;;;5048800;28;20053;-76
2023/04/18 08:35:10;;;;;;;11.98;5.70;;;;;;;;;;5066189;28;20065;-77
2023/04/18 08:37:36;;;;;;;10.07;5.57;;;;;;;;;;5065452;28;20069;-77
2023/04/18 08:40:03;;;;;;;10.85;5.80;;;;;;;;;;5069041;28;20530;-77
2023/04/18 08:42:30;;;;;;;8.73;5.32;;;;;;;;;;5070959;28;20064;-77
2023/04/18 08:44:59;;;;;;;10.13;5.82;;;;;;;;;;5060946;28;20053;-76
2023/04/18 08:47:29;;;;;;;9.68;5.55;;;;;;;;;;5063184;28;20454;-76
2023/04/18 08:49:57;;;;;;;14.13;5.47;;;;;;;;;;5061788;28;20071;-75
2023/04/18 08:52:24;;;;;;;10.43;5.78;;;;;;;;;;5055631;28;20063;-76
2023/04/18 08:54:51;;;;;;;9.65;5.35;;;;;;;;;;5061836;28;20057;-76
2023/04/18 08:57:27;;;;;;;9.63;5.45;;;;;;;;;;5058908;28;20053;-76
2023/04/18 08:59:54;;;;;;;10.65;5.30;;;;;;;;;;5058681;28;20657;-76
2023/04/18 09:02:22;;;;;;;10.63;5.05;;;;;;;;;;5061695;28;20154;-76
2023/04/18 09:04:51;;;;;;;9.25;5.32;;;;;;;;;;5062695;28;20052;-76
2023/04/18 09:07:36;;;;;;;9.57;5.57;;;;;;;;;;5055789;28;20747;-76
2023/04/18 09:10:02;;;;;;;8.52;5.07;;;;;;;;;;5051137;28;20537;-76
2023/04/18 09:12:29;;;;;;;7.75;4.43;;;;;;;;;;5051527;28;20905;-76
2023/04/18 09:15:10;;;;;;;8.90;4.68;;;;;;;;;;5062736;28;20131;-76
2023/04/18 09:17:44;;;;;;;8.27;4.78;;;;;;;;;;5059747;28;20056;-76
2023/04/18 09:20:14;;;;;;;8.05;4.75;;;;;;;;;;5062915;28;20068;-76
2023/04/18 09:22:46;;;;;;;12.55;4.82;;;;;;;;;;5064142;28;20057;-76
2023/04/18 09:25:27;;;;;;;6.60;3.75;;;;;;;;;;5062774;28;20482;-76
2023/04/18 09:27:59;;;;;;;8.13;4.35;;;;;;;;;;5055948;28;20060;-76
2023/04/18 09:30:39;;;;;;;8.00;4.60;;;;;;;;;;5056487;28;22178;-76
2023/04/18 09:33:11;;;;;;;8.63;4.30;;;;;;;;;;5055414;28;20053;-76
2023/04/18 09:35:38;;;;;;;7.97;4.60;;;;;;;;;;5045142;28;20538;-76
2023/04/18 09:38:05;;;;;;;7.25;4.47;;;;;;;;;;5042193;28;20092;-76
2023/04/18 09:40:31;;;;;;;7.20;4.43;;;;;;;;;;5058974;28;20060;-76
2023/04/18 09:42:58;;;;;;;8.20;4.65;;;;;;;;;;5063987;28;20096;-76
2023/04/18 09:45:25;;;;;;;9.00;4.68;;;;;;;;;;5059475;28;20101;-76
2023/04/18 09:47:52;;;;;;;10.98;4.90;;;;;;;;;;5048243;28;20056;-76
2023/04/18 09:50:19;;;;;;;10.45;5.22;;;;;;;;;;5043449;28;20156;-76
2023/04/18 09:52:46;;;;;;;8.73;4.55;;;;;;;;;;5051713;28;20141;-76
2023/04/18 09:55:15;;;;;;;7.50;4.55;;;;;;;;;;5063849;28;20059;-76
2023/04/18 09:57:43;;;;;;;7.28;4.25;;;;;;;;;;5055867;28;20543;-76
2023/04/18 10:00:16;;;;;;;8.63;4.35;;;;;;;;;;5052255;28;20838;-76
2023/04/18 10:02:49;;;;;;;7.80;4.20;;;;;;;;;;5062801;28;20057;-76
2023/04/18 10:05:16;;;;;;;9.85;4.13;;;;;;;;;;5062252;28;20048;-76
2023/04/18 10:07:47;;;;;;;8.90;4.65;;;;;;;;;;5062612;28;20130;-76
2023/04/18 10:10:13;;;;;;;7.65;3.83;;;;;;;;;;5064306;28;20600;-76
2023/04/18 10:12:40;;;;;;;8.95;3.65;;;;;;;;;;5056272;28;20053;-76
2023/04/18 10:15:07;;;;;;;7.88;3.78;;;;;;;;;;5056200;28;20535;-76
2023/04/18 10:18:03;;;;;;;7.68;3.40;;;;;;;;;;5055984;28;20510;-76
2023/04/18 10:20:32;;;;;;;7.22;3.67;;;;;;;;;;5038417;28;20479;-76
2023/04/18 10:22:59;;;;;;;7.72;4.20;;;;;;;;;;5053841;28;21031;-76
2023/04/18 10:25:37;;;;;;;8.55;3.97;;;;;;;;;;5060212;28;20111;-79
2023/04/18 10:28:04;;;;;;;8.32;4.13;;;;;;;;;;5056024;28;20168;-76
2023/04/18 10:30:38;;;;;;;7.80;3.90;;;;;;;;;;5058738;28;20053;-76
2023/04/18 10:33:24;;;;;;;7.88;4.40;;;;;;;;;;5061907;28;20049;-75
2023/04/18 10:36:04;;;;;;;7.25;4.28;;;;;;;;;;5053781;28;20057;-75
2023/04/18 10:38:31;;;;;;;8.02;4.00;;;;;;;;;;5058309;28;20053;-76
2023/04/18 10:41:16;;;;;;;7.80;3.45;;;;;;;;;;5056724;28;20049;-76
2023/04/18 10:44:01;;;;;;;10.32;3.78;;;;;;;;;;5070715;28;20144;-76
2023/04/18 10:46:27;;;;;;;7.45;3.70;;;;;;;;;;5057613;28;20057;-76
2023/04/18 10:49:30;;;;;;;9.45;4.00;;;;;;;;;;5062769;28;20137;-76
2023/04/18 10:51:59;;;;;;;8.50;3.75;;;;;;;;;;5034539;28;20057;-76
2023/04/18 10:54:27;;;;;;;8.75;3.97;;;;;;;;;;5046870;28;20060;-76
2023/04/18 10:56:54;;;;;;;7.35;3.58;;;;;;;;;;5062424;28;20099;-75
2023/04/18 10:59:24;;;;;;;6.72;3.47;;;;;;;;;;5062793;28;20071;-76
2023/04/18 11:01:54;;;;;;;11.20;3.83;;;;;;;;;;5054443;28;20123;-76
2023/04/18 11:04:21;;;;;;;;;;;;;;;;;;5061497;28;20314;-76
2023/04/18 11:06:56;;;;;;;6.63;4.10;;;;;;;;;;5061271;28;45939;-76
2023/04/18 11:09:23;;;;;;;7.50;4.20;;;;;;;;;;5054831;28;20053;-76
2023/04/18 11:12:09;;;;;;;7.32;4.57;;;;;;;;;;5060691;28;20060;-76
2023/04/18 11:14:39;;;;;;;9.65;5.03;;;;;;;;;;5045827;28;20137;-76
2023/04/18 11:17:25;;;;;;;12.10;4.40;;;;;;;;;;5046690;28;20094;-76
2023/04/18 11:20:04;;;;;;;7.43;4.45;;;;;;;;;;5050471;28;20272;-76
2023/04/18 11:22:31;;;;;;;11.32;5.00;;;;;;;;;;5061664;28;20114;-76
2023/04/18 11:24:58;;;;;;;7.95;4.63;;;;;;;;;;5057611;28;20574;-76
2023/04/18 11:27:25;;;;;;;8.90;4.70;;;;;;;;;;5046152;28;20583;-76
2023/04/18 11:29:52;;;;;;;9.02;5.05;;;;;;;;;;5056103;28;20060;-76
2023/04/18 11:32:20;;;;;;;10.30;5.53;;;;;;;;;;5059426;28;20147;-76
2023/04/18 11:34:49;;;;;;;9.07;5.50;;;;;;;;;;5060562;28;20099;-76
2023/04/18 11:37:15;;;;;;;9.02;5.43;;;;;;;;;;5074336;28;20512;-76
2023/04/18 11:39:42;;;;;;;9.30;4.93;;;;;;;;;;5052491;28;20080;-76
2023/04/18 11:42:09;;;;;;;8.65;5.47;;;;;;;;;;5065788;28;20056;-76
2023/04/18 11:44:38;;;;;;;8.60;5.70;;;;;;;;;;5059087;28;20171;-76
2023/04/18 11:47:20;;;;;;;10.02;6.25;;;;;;;;;;5052639;28;20053;-76
2023/04/18 11:49:47;;;;;;;10.93;6.32;;;;;;;;;;5064089;28;20065;-76
2023/04/18 11:52:13;;;;;;;10.43;5.95;;;;;;;;;;5065904;28;20447;-76
2023/04/18 11:54:40;;;;;;;9.07;5.88;;;;;;;;;;5065532;28;20049;-75
2023/04/18 11:57:19;;;;;;;10.55;5.75;;;;;;;;;;5065235;28;20136;-76
2023/04/18 11:59:49;;;;;;;9.50;6.25;;;;;;;;;;5055779;28;20661;-76
2023/04/18 12:02:15;;;;;;;10.15;5.80;;;;;;;;;;5059698;28;20045;-76
2023/04/18 12:04:53;;;;;;;9.00;5.63;;;;;;;;;;5061293;28;20529;-76
2023/04/18 12:07:39;;;;;;;8.93;5.75;;;;;;;;;;5059774;28;20147;-76
2023/04/18 12:10:07;;;;;;;15.27;6.93;;;;;;;;;;5057085;28;20060;-77
2023/04/18 12:12:33;;;;;;;11.75;6.50;;;;;;;;;;5064831;28;20154;-77
2023/04/18 12:15:07;;;;;;;11.70;6.43;;;;;;;;;;5060411;28;20061;-77
2023/04/18 12:17:35;;;;;;;11.48;6.90;;;;;;;;;;5053024;28;20053;-76
2023/04/18 12:20:03;;;;;;;11.32;6.85;;;;;;;;;;5077727;28;20083;-76
2023/04/18 12:22:56;;;;;;;11.15;6.60;;;;;;;;;;5047314;28;20061;-76
2023/04/18 12:25:25;;;;;;;12.05;6.82;;;;;;;;;;5045202;28;20053;-77
2023/04/18 12:28:11;;;;;;;12.85;7.63;;;;;;;;;;5062486;28;20107;-77
2023/04/18 12:30:38;;;;;;;12.00;6.90;;;;;;;;;;5062251;28;20088;-77
2023/04/18 12:33:05;;;;;;;15.38;7.95;;;;;;;;;;5067343;28;20848;-76
2023/04/18 12:35:31;;;;;;;11.65;7.20;;;;;;;;;;5064667;28;20064;-76
2023/04/18 12:37:59;;;;;;;16.98;7.68;;;;;;;;;;5061733;28;20057;-76
2023/04/18 12:40:26;;;;;;;16.00;7.82;;;;;;;;;;5066386;28;20144;-76
2023/04/18 12:42:53;;;;;;;13.55;8.00;;;;;;;;;;5054434;28;20102;-77
2023/04/18 12:45:20;;;;;;;14.13;8.05;;;;;;;;;;5063217;28;21011;-77
2023/04/18 12:47:48;;;;;;;14.43;7.85;;;;;;;;;;5060217;28;20128;-76
2023/04/18 12:50:19;;;;;;;14.80;7.70;;;;;;;;;;5065213;28;20080;-76
2023/04/18 12:52:45;;;;;;;13.07;8.23;;;;;;;;;;5051805;28;20188;-76
2023/04/18 12:55:12;;;;;;;14.40;8.23;;;;;;;;;;5053947;28;20670;-77
2023/04/18 12:57:40;;;;;;;13.98;8.77;;;;;;;;;;5063735;28;20962;-80
2023/04/18 13:00:09;;;;;;;12.80;8.27;;;;;;;;;;5064344;28;21812;-78
2023/04/18 13:02:37;;;;;;;12.00;8.15;;;;;;;;;;5066380;28;20111;-77
2023/04/18 13:05:05;;;;;;;14.18;8.13;;;;;;;;;;5067130;28;20131;-80
2023/04/18 13:07:32;;;;;;;13.68;8.32;;;;;;;;;;5060227;28;20055;-77
2023/04/18 13:09:58;;;;;;;13.07;7.90;;;;;;;;;;5056417;28;21415;-77
2023/04/18 13:12:25;;;;;;;13.40;8.52;;;;;;;;;;5061356;28;20049;-77
2023/04/18 13:14:51;;;;;;;14.05;8.50;;;;;;;;;;5062047;28;22553;-77
2023/04/18 13:17:18;;;;;;;13.27;8.27;;;;;;;;;;5061057;28;20053;-77
2023/04/18 13:19:44;;;;;;;14.68;8.30;;;;;;;;;;5064085;28;20200;-77
2023/04/18 13:22:10;;;;;;;14.57;8.70;;;;;;;;;;5060234;28;20138;-77
2023/04/18 13:24:36;;;;;;;14.48;8.68;;;;;;;;;;5062676;28;20527;-77
2023/04/18 13:27:09;;;;;;;15.40;9.00;;;;;;;;;;5057638;28;20508;-77
2023/04/18 13:29:40;;;;;;;17.15;9.48;;;;;;;;;;5062849;28;20053;-77
2023/04/18 13:32:06;;;;;;;16.83;9.77;;;;;;;;;;5061283;28;20058;-77
2023/04/18 13:34:35;;;;;;;14.18;9.13;;;;;;;;;;5045891;28;20566;-77
2023/04/18 13:37:02;;;;;;;14.70;9.18;;;;;;;;;;5063750;28;20162;-77
2023/04/18 13:39:31;;;;;;;18.27;10.07;;;;;;;;;;5063688;28;20156;-77
2023/04/18 13:41:57;;;;;;;15.77;9.10;;;;;;;;;;5059950;28;20118;-77
2023/04/18 13:44:24;;;;;;;15.93;8.95;;;;;;;;;;5057057;28;20140;-77
2023/04/18 13:46:51;;;;;;;13.98;9.13;;;;;;;;;;5051204;28;20056;-77
2023/04/18 13:49:18;;;;;;;16.42;9.23;;;;;;;;;;5060715;28;20598;-76
2023/04/18 13:51:45;;;;;;;16.33;9.98;;;;;;;;;;5063954;28;20056;-76
2023/04/18 13:54:14;;;;;;;15.27;9.77;;;;;;;;;;5063512;28;20098;-76
2023/04/18 13:56:41;;;;;;;15.93;9.00;;;;;;;;;;5048153;28;20057;-76
2023/04/18 13:59:07;;;;;;;16.35;9.82;;;;;;;;;;5060175;28;20119;-76
2023/04/18 14:01:34;;;;;;;14.60;9.30;;;;;;;;;;5054861;28;20196;-76
2023/04/18 14:04:01;;;;;;;17.65;8.45;;;;;;;;;;5049657;28;20053;-76
2023/04/18 14:06:28;;;;;;;15.85;8.80;;;;;;;;;;5056096;28;20831;-76
2023/04/18 14:08:54;;;;;;;15.85;9.65;;;;;;;;;;5048261;28;20577;-75
2023/04/18 14:11:21;;;;;;;16.17;9.77;;;;;;;;;;5053621;28;20058;-76
2023/04/18 14:13:48;;;;;;;15.27;9.95;;;;;;;;;;5049633;28;20498;-76
2023/04/18 14:16:14;;;;;;;20.50;9.52;;;;;;;;;;5074536;28;20049;-76
2023/04/18 14:18:40;;;;;;;15.13;9.05;;;;;;;;;;5047542;28;20049;-76
2023/04/18 14:21:07;;;;;;;15.20;9.45;;;;;;;;;;5055973;28;20527;-76
2023/04/18 14:23:34;;;;;;;16.85;9.25;;;;;;;;;;5044362;28;20084;-75
2023/04/18 14:26:00;;;;;;;14.52;9.05;;;;;;;;;;5053510;28;20187;-76
2023/04/18 14:28:27;;;;;;;12.73;8.80;;;;;;;;;;5062419;28;20055;-77
2023/04/18 14:30:56;;;;;;;15.40;9.48;;;;;;;;;;5061033;28;20060;-77
2023/04/18 14:33:23;;;;;;;14.25;9.30;;;;;;;;;;5062521;28;20053;-77
2023/04/18 14:35:50;;;;;;;17.33;8.45;;;;;;;;;;5063729;28;20048;-77